sensor_id;sensor_type;location;lat;lon;timestamp;pressure;altitude;pressure_sealevel;temperature;humidity
32083;BME280;18597;48.328;7.932;2023-05-15T00:00:34;99207.47;;;10.89;100.00
32083;BME280;18597;48.328;7.932;2023-05-15T00:03:02;99204.94;;;10.78;100.00
32083;BME280;18597;48.328;7.932;2023-05-15T00:05:28;99208.63;;;10.77;100.00
32083;BME280;18597;48.328;7.932;2023-05-15T00:07:54;99200.44;;;10.78;100.00
32083;BME280;18597;48.328;7.932;2023-05-15T00:10:20;99205.94;;;10.77;100.00
32083;BME280;18597;48.328;7.932;2023-05-15T00:12:46;99199.59;;;10.78;100.00
32083;BME280;18597;48.328;7.932;2023-05-15T00:15:11;99200.72;;;10.85;100.00
32083;BME280;18597;48.328;7.932;2023-05-15T00:17:37;99204.69;;;10.81;100.00
32083;BME280;18597;48.328;7.932;2023-05-15T00:20:03;99204.81;;;10.79;100.00
32083;BME280;18597;48.328;7.932;2023-05-15T00:22:29;99205.25;;;10.75;100.00
32083;BME280;18597;48.328;7.932;2023-05-15T00:24:55;99202.00;;;10.71;100.00
32083;BME280;18597;48.328;7.932;2023-05-15T00:27:21;99206.25;;;10.54;100.00
32083;BME280;18597;48.328;7.932;2023-05-15T00:29:47;99204.00;;;10.40;100.00
32083;BME280;18597;48.328;7.932;2023-05-15T00:32:13;99204.97;;;10.30;100.00
32083;BME280;18597;48.328;7.932;2023-05-15T00:34:38;99196.81;;;10.31;100.00
32083;BME280;18597;48.328;7.932;2023-05-15T00:37:05;99203.72;;;10.24;100.00
32083;BME280;18597;48.328;7.932;2023-05-15T00:39:30;99205.25;;;10.26;100.00
32083;BME280;18597;48.328;7.932;2023-05-15T00:41:57;99197.22;;;10.26;100.00
32083;BME280;18597;48.328;7.932;2023-05-15T00:44:25;99200.47;;;10.30;100.00
32083;BME280;18597;48.328;7.932;2023-05-15T00:46:53;99194.44;;;10.28;100.00
32083;BME280;18597;48.328;7.932;2023-05-15T00:49:22;99193.97;;;10.13;100.00
32083;BME280;18597;48.328;7.932;2023-05-15T00:51:49;99194.38;;;10.09;100.00
32083;BME280;18597;48.328;7.932;2023-05-15T00:54:15;99198.13;;;9.77;100.00
32083;BME280;18597;48.328;7.932;2023-05-15T00:56:43;99207.03;;;9.57;100.00
32083;BME280;18597;48.328;7.932;2023-05-15T00:59:11;99195.66;;;9.45;100.00
32083;BME280;18597;48.328;7.932;2023-05-15T01:01:38;99196.00;;;9.31;100.00
32083;BME280;18597;48.328;7.932;2023-05-15T01:04:04;99202.50;;;9.38;100.00
32083;BME280;18597;48.328;7.932;2023-05-15T01:06:30;99204.56;;;9.34;100.00
32083;BME280;18597;48.328;7.932;2023-05-15T01:08:59;99205.56;;;9.43;100.00
32083;BME280;18597;48.328;7.932;2023-05-15T01:11:27;99206.31;;;9.45;100.00
32083;BME280;18597;48.328;7.932;2023-05-15T01:14:03;99206.03;;;9.48;100.00
32083;BME280;18597;48.328;7.932;2023-05-15T01:16:32;99215.16;;;9.45;100.00
32083;BME280;18597;48.328;7.932;2023-05-15T01:18:58;99222.97;;;9.37;100.00
32083;BME280;18597;48.328;7.932;2023-05-15T01:27:50;99229.31;;;9.15;100.00
32083;BME280;18597;48.328;7.932;2023-05-15T01:30:26;99220.66;;;9.23;100.00
32083;BME280;18597;48.328;7.932;2023-05-15T01:33:24;99216.72;;;9.27;100.00
32083;BME280;18597;48.328;7.932;2023-05-15T01:38:42;99213.69;;;9.32;100.00
32083;BME280;18597;48.328;7.932;2023-05-15T01:41:45;99212.09;;;9.29;100.00
32083;BME280;18597;48.328;7.932;2023-05-15T01:44:26;99209.66;;;9.37;100.00
32083;BME280;18597;48.328;7.932;2023-05-15T01:46:58;99207.22;;;9.34;100.00
32083;BME280;18597;48.328;7.932;2023-05-15T01:49:26;99204.25;;;9.28;100.00
32083;BME280;18597;48.328;7.932;2023-05-15T01:52:15;99201.59;;;9.28;100.00
32083;BME280;18597;48.328;7.932;2023-05-15T01:54:42;99199.44;;;9.22;100.00
32083;BME280;18597;48.328;7.932;2023-05-15T01:57:09;99199.41;;;9.42;100.00
32083;BME280;18597;48.328;7.932;2023-05-15T01:59:36;99197.84;;;9.40;100.00
32083;BME280;18597;48.328;7.932;2023-05-15T02:02:04;99202.66;;;9.46;100.00
32083;BME280;18597;48.328;7.932;2023-05-15T02:04:32;99198.66;;;9.31;100.00
32083;BME280;18597;48.328;7.932;2023-05-15T02:07:00;99199.69;;;9.39;100.00
32083;BME280;18597;48.328;7.932;2023-05-15T02:09:28;99205.53;;;9.33;100.00
32083;BME280;18597;48.328;7.932;2023-05-15T02:11:55;99200.84;;;9.47;100.00
32083;BME280;18597;48.328;7.932;2023-05-15T02:14:21;99200.69;;;9.48;100.00
32083;BME280;18597;48.328;7.932;2023-05-15T02:16:49;99200.53;;;9.40;100.00
32083;BME280;18597;48.328;7.932;2023-05-15T02:19:16;99199.84;;;9.48;100.00
32083;BME280;18597;48.328;7.932;2023-05-15T02:21:41;99207.81;;;9.38;100.00
32083;BME280;18597;48.328;7.932;2023-05-15T02:24:07;99205.22;;;9.27;100.00
32083;BME280;18597;48.328;7.932;2023-05-15T02:27:45;99208.66;;;9.38;100.00
32083;BME280;18597;48.328;7.932;2023-05-15T02:30:29;99207.69;;;9.39;100.00
32083;BME280;18597;48.328;7.932;2023-05-15T02:33:28;99204.69;;;9.33;100.00
32083;BME280;18597;48.328;7.932;2023-05-15T02:36:04;99202.34;;;9.09;100.00
32083;BME280;18597;48.328;7.932;2023-05-15T02:38:40;99206.66;;;9.31;100.00
32083;BME280;18597;48.328;7.932;2023-05-15T02:41:09;99205.34;;;9.15;100.00
32083;BME280;18597;48.328;7.932;2023-05-15T02:43:35;99197.91;;;8.98;100.00
32083;BME280;18597;48.328;7.932;2023-05-15T02:46:04;99198.09;;;9.06;100.00
32083;BME280;18597;48.328;7.932;2023-05-15T02:48:34;99193.22;;;9.11;100.00
32083;BME280;18597;48.328;7.932;2023-05-15T02:51:02;99201.50;;;9.08;100.00
32083;BME280;18597;48.328;7.932;2023-05-15T02:53:28;99189.75;;;9.21;100.00
32083;BME280;18597;48.328;7.932;2023-05-15T02:55:54;99195.50;;;9.16;100.00
32083;BME280;18597;48.328;7.932;2023-05-15T02:58:20;99196.22;;;9.18;100.00
32083;BME280;18597;48.328;7.932;2023-05-15T03:00:46;99194.72;;;9.25;100.00
32083;BME280;18597;48.328;7.932;2023-05-15T03:03:12;99202.56;;;9.27;100.00
32083;BME280;18597;48.328;7.932;2023-05-15T03:05:38;99202.88;;;9.33;100.00
32083;BME280;18597;48.328;7.932;2023-05-15T03:08:05;99203.09;;;9.21;100.00
32083;BME280;18597;48.328;7.932;2023-05-15T03:10:30;99195.34;;;9.08;100.00
32083;BME280;18597;48.328;7.932;2023-05-15T03:12:56;99195.81;;;8.92;100.00
32083;BME280;18597;48.328;7.932;2023-05-15T03:15:23;99194.41;;;8.98;100.00
32083;BME280;18597;48.328;7.932;2023-05-15T03:17:48;99196.06;;;8.89;100.00
32083;BME280;18597;48.328;7.932;2023-05-15T03:20:14;99193.19;;;8.81;100.00
32083;BME280;18597;48.328;7.932;2023-05-15T03:22:41;99191.97;;;8.85;100.00
32083;BME280;18597;48.328;7.932;2023-05-15T03:25:10;99191.19;;;8.73;100.00
32083;BME280;18597;48.328;7.932;2023-05-15T03:27:36;99191.47;;;8.70;100.00
32083;BME280;18597;48.328;7.932;2023-05-15T03:30:04;99194.00;;;8.72;100.00
32083;BME280;18597;48.328;7.932;2023-05-15T03:32:30;99193.84;;;8.94;100.00
32083;BME280;18597;48.328;7.932;2023-05-15T03:34:56;99195.00;;;9.01;100.00
32083;BME280;18597;48.328;7.932;2023-05-15T03:37:22;99204.97;;;8.78;100.00
32083;BME280;18597;48.328;7.932;2023-05-15T03:39:47;99203.75;;;8.61;100.00
32083;BME280;18597;48.328;7.932;2023-05-15T03:42:13;99207.50;;;8.80;100.00
32083;BME280;18597;48.328;7.932;2023-05-15T03:44:39;99204.38;;;8.75;100.00
32083;BME280;18597;48.328;7.932;2023-05-15T03:47:06;99193.38;;;8.89;100.00
32083;BME280;18597;48.328;7.932;2023-05-15T03:49:31;99201.72;;;8.75;100.00
32083;BME280;18597;48.328;7.932;2023-05-15T03:51:57;99208.81;;;8.85;100.00
32083;BME280;18597;48.328;7.932;2023-05-15T03:54:24;99207.97;;;8.85;100.00
32083;BME280;18597;48.328;7.932;2023-05-15T03:56:50;99214.47;;;8.92;100.00
32083;BME280;18597;48.328;7.932;2023-05-15T03:59:15;99209.31;;;9.00;100.00
32083;BME280;18597;48.328;7.932;2023-05-15T04:01:41;99218.19;;;9.10;100.00
32083;BME280;18597;48.328;7.932;2023-05-15T04:04:07;99217.22;;;9.11;100.00
32083;BME280;18597;48.328;7.932;2023-05-15T04:06:33;99197.44;;;9.14;100.00
32083;BME280;18597;48.328;7.932;2023-05-15T04:08:59;99205.81;;;9.30;100.00
32083;BME280;18597;48.328;7.932;2023-05-15T04:11:25;99205.53;;;9.33;100.00
32083;BME280;18597;48.328;7.932;2023-05-15T04:13:51;99208.16;;;9.24;100.00
32083;BME280;18597;48.328;7.932;2023-05-15T04:16:17;99210.25;;;9.20;100.00
32083;BME280;18597;48.328;7.932;2023-05-15T04:18:42;99198.06;;;9.27;100.00
32083;BME280;18597;48.328;7.932;2023-05-15T04:21:08;99213.94;;;9.29;100.00
32083;BME280;18597;48.328;7.932;2023-05-15T04:23:34;99205.81;;;9.30;100.00
32083;BME280;18597;48.328;7.932;2023-05-15T04:26:00;99208.53;;;9.40;100.00
32083;BME280;18597;48.328;7.932;2023-05-15T04:28:26;99207.53;;;9.41;100.00
32083;BME280;18597;48.328;7.932;2023-05-15T04:30:51;99207.00;;;9.47;100.00
32083;BME280;18597;48.328;7.932;2023-05-15T04:33:17;99199.19;;;9.55;100.00
32083;BME280;18597;48.328;7.932;2023-05-15T04:35:43;99202.28;;;9.60;100.00
32083;BME280;18597;48.328;7.932;2023-05-15T04:38:09;99204.47;;;9.86;100.00
32083;BME280;18597;48.328;7.932;2023-05-15T04:40:35;99204.19;;;9.89;100.00
32083;BME280;18597;48.328;7.932;2023-05-15T04:43:00;99207.56;;;9.91;100.00
32083;BME280;18597;48.328;7.932;2023-05-15T04:45:28;99201.25;;;9.92;100.00
32083;BME280;18597;48.328;7.932;2023-05-15T04:47:54;99202.94;;;9.93;100.00
32083;BME280;18597;48.328;7.932;2023-05-15T04:50:20;99207.72;;;9.99;100.00
32083;BME280;18597;48.328;7.932;2023-05-15T04:52:45;99207.59;;;10.10;100.00
32083;BME280;18597;48.328;7.932;2023-05-15T04:55:11;99204.97;;;10.30;100.00
32083;BME280;18597;48.328;7.932;2023-05-15T04:57:37;99210.16;;;10.41;100.00
32083;BME280;18597;48.328;7.932;2023-05-15T05:00:04;99211.44;;;10.56;100.00
32083;BME280;18597;48.328;7.932;2023-05-15T05:02:39;99200.88;;;10.64;100.00
32083;BME280;18597;48.328;7.932;2023-05-15T05:05:05;99200.31;;;10.70;100.00
32083;BME280;18597;48.328;7.932;2023-05-15T05:07:33;99205.38;;;10.83;100.00
32083;BME280;18597;48.328;7.932;2023-05-15T05:09:59;99204.94;;;10.88;100.00
32083;BME280;18597;48.328;7.932;2023-05-15T05:12:25;99208.72;;;10.95;100.00
32083;BME280;18597;48.328;7.932;2023-05-15T05:14:50;99213.06;;;11.05;100.00
32083;BME280;18597;48.328;7.932;2023-05-15T05:17:16;99218.25;;;11.07;100.00
32083;BME280;18597;48.328;7.932;2023-05-15T05:19:43;99215.72;;;11.15;100.00
32083;BME280;18597;48.328;7.932;2023-05-15T05:22:09;99234.69;;;11.22;100.00
32083;BME280;18597;48.328;7.932;2023-05-15T05:24:35;99229.19;;;11.23;100.00
32083;BME280;18597;48.328;7.932;2023-05-15T05:27:02;99234.50;;;11.43;100.00
32083;BME280;18597;48.328;7.932;2023-05-15T05:29:29;99234.13;;;11.65;100.00
32083;BME280;18597;48.328;7.932;2023-05-15T05:31:55;99232.78;;;11.88;100.00
32083;BME280;18597;48.328;7.932;2023-05-15T05:34:22;99223.53;;;12.01;100.00
32083;BME280;18597;48.328;7.932;2023-05-15T05:36:48;99225.09;;;12.21;100.00
32083;BME280;18597;48.328;7.932;2023-05-15T05:39:15;99224.94;;;12.22;100.00
32083;BME280;18597;48.328;7.932;2023-05-15T05:41:42;99228.13;;;12.08;100.00
32083;BME280;18597;48.328;7.932;2023-05-15T05:44:07;99220.28;;;12.25;100.00
32083;BME280;18597;48.328;7.932;2023-05-15T05:46:33;99212.94;;;12.44;100.00
32083;BME280;18597;48.328;7.932;2023-05-15T05:48:59;99218.84;;;12.48;100.00
32083;BME280;18597;48.328;7.932;2023-05-15T05:51:25;99217.31;;;12.63;100.00
32083;BME280;18597;48.328;7.932;2023-05-15T05:53:51;99222.97;;;12.78;100.00
32083;BME280;18597;48.328;7.932;2023-05-15T05:56:17;99215.31;;;13.09;100.00
32083;BME280;18597;48.328;7.932;2023-05-15T05:58:43;99212.97;;;13.32;100.00
32083;BME280;18597;48.328;7.932;2023-05-15T06:01:09;99209.47;;;13.74;100.00
32083;BME280;18597;48.328;7.932;2023-05-15T06:03:37;99212.34;;;14.31;100.00
32083;BME280;18597;48.328;7.932;2023-05-15T06:06:03;99206.38;;;14.78;100.00
32083;BME280;18597;48.328;7.932;2023-05-15T06:08:29;99213.03;;;15.22;100.00
32083;BME280;18597;48.328;7.932;2023-05-15T06:10:56;99209.25;;;16.03;100.00
32083;BME280;18597;48.328;7.932;2023-05-15T06:13:22;99215.69;;;16.79;96.07
32083;BME280;18597;48.328;7.932;2023-05-15T06:15:48;99213.16;;;18.19;88.09
32083;BME280;18597;48.328;7.932;2023-05-15T06:18:14;99218.69;;;19.67;69.31
32083;BME280;18597;48.328;7.932;2023-05-15T06:20:39;99207.44;;;21.12;60.38
32083;BME280;18597;48.328;7.932;2023-05-15T06:23:07;99200.97;;;22.49;51.81
32083;BME280;18597;48.328;7.932;2023-05-15T06:25:33;99209.59;;;23.09;50.83
32083;BME280;18597;48.328;7.932;2023-05-15T06:27:59;99206.03;;;23.77;48.33
32083;BME280;18597;48.328;7.932;2023-05-15T06:30:25;99208.75;;;25.15;44.99
32083;BME280;18597;48.328;7.932;2023-05-15T06:32:52;99204.72;;;26.28;41.91
32083;BME280;18597;48.328;7.932;2023-05-15T06:35:18;99203.44;;;26.19;41.61
32083;BME280;18597;48.328;7.932;2023-05-15T06:37:44;99200.78;;;25.61;40.50
32083;BME280;18597;48.328;7.932;2023-05-15T06:40:15;99214.53;;;24.54;42.48
32083;BME280;18597;48.328;7.932;2023-05-15T06:42:41;99203.81;;;23.42;46.31
32083;BME280;18597;48.328;7.932;2023-05-15T06:45:08;99203.09;;;23.35;46.99
32083;BME280;18597;48.328;7.932;2023-05-15T06:47:34;99206.78;;;23.41;46.70
32083;BME280;18597;48.328;7.932;2023-05-15T06:50:00;99205.34;;;23.63;46.86
32083;BME280;18597;48.328;7.932;2023-05-15T06:52:26;99204.19;;;24.07;45.64
32083;BME280;18597;48.328;7.932;2023-05-15T06:54:52;99197.75;;;24.20;44.02
32083;BME280;18597;48.328;7.932;2023-05-15T06:57:18;99199.13;;;25.60;42.09
32083;BME280;18597;48.328;7.932;2023-05-15T06:59:44;99192.38;;;27.00;38.91
32083;BME280;18597;48.328;7.932;2023-05-15T07:02:11;99192.34;;;28.55;37.30
32083;BME280;18597;48.328;7.932;2023-05-15T07:04:36;99179.75;;;32.16;31.39
32083;BME280;18597;48.328;7.932;2023-05-15T07:07:02;99184.16;;;35.30;26.09
32083;BME280;18597;48.328;7.932;2023-05-15T07:09:28;99174.56;;;36.37;24.70
32083;BME280;18597;48.328;7.932;2023-05-15T07:11:54;99172.75;;;35.92;24.35
32083;BME280;18597;48.328;7.932;2023-05-15T07:14:20;99170.94;;;37.18;23.60
32083;BME280;18597;48.328;7.932;2023-05-15T07:16:46;99163.09;;;36.75;23.78
32083;BME280;18597;48.328;7.932;2023-05-15T07:19:12;99165.47;;;39.15;21.32
32083;BME280;18597;48.328;7.932;2023-05-15T07:21:38;99155.44;;;39.70;20.12
32083;BME280;18597;48.328;7.932;2023-05-15T07:24:05;99152.47;;;38.50;21.28
32083;BME280;18597;48.328;7.932;2023-05-15T07:26:31;99147.69;;;40.55;20.13
32083;BME280;18597;48.328;7.932;2023-05-15T07:28:57;99143.47;;;37.25;21.93
32083;BME280;18597;48.328;7.932;2023-05-15T07:31:23;99137.03;;;35.25;23.92
32083;BME280;18597;48.328;7.932;2023-05-15T07:33:49;99138.94;;;36.62;23.06
32083;BME280;18597;48.328;7.932;2023-05-15T07:36:15;99139.13;;;37.72;22.21
32083;BME280;18597;48.328;7.932;2023-05-15T07:38:41;99134.47;;;37.51;22.24
32083;BME280;18597;48.328;7.932;2023-05-15T07:41:07;99135.09;;;37.25;22.13
32083;BME280;18597;48.328;7.932;2023-05-15T07:43:34;99140.69;;;31.79;28.39
32083;BME280;18597;48.328;7.932;2023-05-15T07:45:59;99139.88;;;32.33;28.86
32083;BME280;18597;48.328;7.932;2023-05-15T07:48:25;99129.41;;;32.19;28.33
32083;BME280;18597;48.328;7.932;2023-05-15T07:50:51;99134.06;;;31.74;28.61
32083;BME280;18597;48.328;7.932;2023-05-15T07:53:18;99128.81;;;29.10;32.66
32083;BME280;18597;48.328;7.932;2023-05-15T07:55:44;99140.53;;;28.41;34.41
32083;BME280;18597;48.328;7.932;2023-05-15T07:58:11;99142.22;;;27.16;36.36
32083;BME280;18597;48.328;7.932;2023-05-15T08:00:37;99139.59;;;28.04;34.36
32083;BME280;18597;48.328;7.932;2023-05-15T08:03:03;99138.22;;;27.84;35.16
32083;BME280;18597;48.328;7.932;2023-05-15T08:05:28;99132.06;;;29.02;33.40
32083;BME280;18597;48.328;7.932;2023-05-15T08:07:55;99128.47;;;29.44;31.60
32083;BME280;18597;48.328;7.932;2023-05-15T08:10:21;99133.28;;;28.89;32.71
32083;BME280;18597;48.328;7.932;2023-05-15T08:12:47;99137.84;;;28.19;33.15
32083;BME280;18597;48.328;7.932;2023-05-15T08:15:15;99131.28;;;27.77;33.75
32083;BME280;18597;48.328;7.932;2023-05-15T08:17:41;99134.31;;;27.80;33.31
32083;BME280;18597;48.328;7.932;2023-05-15T08:20:08;99131.53;;;27.75;33.16
32083;BME280;18597;48.328;7.932;2023-05-15T08:22:34;99128.97;;;28.66;32.37
32083;BME280;18597;48.328;7.932;2023-05-15T08:25:01;99130.34;;;30.69;30.13
32083;BME280;18597;48.328;7.932;2023-05-15T08:27:28;99129.34;;;34.70;24.96
32083;BME280;18597;48.328;7.932;2023-05-15T08:29:54;99135.00;;;37.61;21.72
32083;BME280;18597;48.328;7.932;2023-05-15T08:32:20;99139.84;;;39.89;19.13
32083;BME280;18597;48.328;7.932;2023-05-15T08:34:46;99146.91;;;41.09;17.92
32083;BME280;18597;48.328;7.932;2023-05-15T08:37:12;99127.09;;;42.60;16.88
32083;BME280;18597;48.328;7.932;2023-05-15T08:39:38;99115.19;;;43.07;16.06
32083;BME280;18597;48.328;7.932;2023-05-15T08:42:41;99118.34;;;44.71;15.50
32083;BME280;18597;48.328;7.932;2023-05-15T08:45:08;99115.97;;;46.07;13.68
32083;BME280;18597;48.328;7.932;2023-05-15T08:47:39;99113.22;;;44.38;14.97
32083;BME280;18597;48.328;7.932;2023-05-15T08:50:08;99108.09;;;41.32;17.08
32083;BME280;18597;48.328;7.932;2023-05-15T08:52:37;99113.47;;;37.53;20.01
32083;BME280;18597;48.328;7.932;2023-05-15T08:55:07;99100.28;;;34.49;23.01
32083;BME280;18597;48.328;7.932;2023-05-15T08:57:34;99098.00;;;33.47;24.41
32083;BME280;18597;48.328;7.932;2023-05-15T09:00:03;99111.69;;;32.36;25.93
32083;BME280;18597;48.328;7.932;2023-05-15T09:02:35;99102.72;;;31.25;27.63
32083;BME280;18597;48.328;7.932;2023-05-15T09:05:02;99103.84;;;30.88;28.30
32083;BME280;18597;48.328;7.932;2023-05-15T09:07:29;99102.16;;;31.12;28.18
32083;BME280;18597;48.328;7.932;2023-05-15T09:09:57;99106.03;;;31.06;28.00
32083;BME280;18597;48.328;7.932;2023-05-15T09:12:25;99097.75;;;30.55;28.04
32083;BME280;18597;48.328;7.932;2023-05-15T09:15:07;99103.06;;;29.84;29.43
32083;BME280;18597;48.328;7.932;2023-05-15T09:17:33;99102.97;;;29.16;29.59
32083;BME280;18597;48.328;7.932;2023-05-15T09:19:59;99099.81;;;28.33;31.24
32083;BME280;18597;48.328;7.932;2023-05-15T09:22:25;99110.59;;;28.18;32.17
32083;BME280;18597;48.328;7.932;2023-05-15T09:24:51;99101.16;;;27.65;32.39
32083;BME280;18597;48.328;7.932;2023-05-15T09:27:19;99111.50;;;27.75;32.58
32083;BME280;18597;48.328;7.932;2023-05-15T09:29:45;99098.06;;;27.56;33.22
32083;BME280;18597;48.328;7.932;2023-05-15T09:32:13;99102.44;;;27.35;33.35
32083;BME280;18597;48.328;7.932;2023-05-15T09:34:42;99094.75;;;26.48;34.94
32083;BME280;18597;48.328;7.932;2023-05-15T09:37:12;99100.97;;;25.87;35.67
32083;BME280;18597;48.328;7.932;2023-05-15T09:39:51;99092.38;;;25.55;36.79
32083;BME280;18597;48.328;7.932;2023-05-15T09:42:17;99084.06;;;25.50;37.60
32083;BME280;18597;48.328;7.932;2023-05-15T09:44:44;99088.19;;;25.52;37.15
32083;BME280;18597;48.328;7.932;2023-05-15T09:47:13;99083.84;;;25.39;37.44
32083;BME280;18597;48.328;7.932;2023-05-15T09:49:43;99085.38;;;25.24;37.93
32083;BME280;18597;48.328;7.932;2023-05-15T09:52:10;99088.22;;;24.94;38.06
32083;BME280;18597;48.328;7.932;2023-05-15T09:54:36;99078.13;;;24.71;38.83
32083;BME280;18597;48.328;7.932;2023-05-15T09:57:12;99077.94;;;24.00;40.42
32083;BME280;18597;48.328;7.932;2023-05-15T09:59:47;99083.44;;;23.27;41.10
32083;BME280;18597;48.328;7.932;2023-05-15T10:02:24;99081.59;;;23.03;41.79
32083;BME280;18597;48.328;7.932;2023-05-15T10:04:56;99084.38;;;22.96;42.08
32083;BME280;18597;48.328;7.932;2023-05-15T10:07:31;99080.09;;;23.07;42.56
32083;BME280;18597;48.328;7.932;2023-05-15T10:09:58;99080.34;;;23.42;42.87
32083;BME280;18597;48.328;7.932;2023-05-15T10:12:24;99078.22;;;23.62;42.06
32083;BME280;18597;48.328;7.932;2023-05-15T10:14:54;99076.47;;;23.49;42.44
32083;BME280;18597;48.328;7.932;2023-05-15T10:17:22;99069.50;;;23.17;41.78
32083;BME280;18597;48.328;7.932;2023-05-15T10:19:50;99066.00;;;22.91;43.62
32083;BME280;18597;48.328;7.932;2023-05-15T10:22:22;99061.06;;;22.57;44.80
32083;BME280;18597;48.328;7.932;2023-05-15T10:24:59;99051.31;;;22.18;44.33
32083;BME280;18597;48.328;7.932;2023-05-15T10:27:27;99051.97;;;21.75;46.22
32083;BME280;18597;48.328;7.932;2023-05-15T10:29:55;99054.16;;;21.53;46.65
32083;BME280;18597;48.328;7.932;2023-05-15T10:32:23;99044.75;;;21.55;45.94
32083;BME280;18597;48.328;7.932;2023-05-15T10:34:52;99047.75;;;21.41;45.49
32083;BME280;18597;48.328;7.932;2023-05-15T10:37:19;99053.56;;;21.44;46.42
32083;BME280;18597;48.328;7.932;2023-05-15T10:39:46;99054.03;;;21.35;46.12
32083;BME280;18597;48.328;7.932;2023-05-15T10:42:12;99043.16;;;21.21;45.74
32083;BME280;18597;48.328;7.932;2023-05-15T10:44:39;99048.69;;;20.95;46.26
32083;BME280;18597;48.328;7.932;2023-05-15T10:47:05;99039.66;;;21.14;46.83
32083;BME280;18597;48.328;7.932;2023-05-15T10:49:31;99035.09;;;21.59;45.91
32083;BME280;18597;48.328;7.932;2023-05-15T10:51:59;99027.34;;;22.01;44.91
32083;BME280;18597;48.328;7.932;2023-05-15T10:54:25;99025.53;;;22.20;45.40
32083;BME280;18597;48.328;7.932;2023-05-15T10:56:55;99027.66;;;21.86;45.27
32083;BME280;18597;48.328;7.932;2023-05-15T10:59:30;99025.69;;;21.62;45.54
32083;BME280;18597;48.328;7.932;2023-05-15T11:02:17;99019.44;;;21.93;44.44
32083;BME280;18597;48.328;7.932;2023-05-15T11:04:43;99020.25;;;22.00;44.97
32083;BME280;18597;48.328;7.932;2023-05-15T11:07:16;99013.69;;;22.14;46.04
32083;BME280;18597;48.328;7.932;2023-05-15T11:09:43;99017.78;;;22.49;44.17
32083;BME280;18597;48.328;7.932;2023-05-15T11:12:10;99018.97;;;22.78;44.99
32083;BME280;18597;48.328;7.932;2023-05-15T11:14:42;99011.59;;;23.03;43.68
32083;BME280;18597;48.328;7.932;2023-05-15T11:17:11;99020.16;;;22.88;42.80
32083;BME280;18597;48.328;7.932;2023-05-15T11:19:54;99006.91;;;22.49;42.23
32083;BME280;18597;48.328;7.932;2023-05-15T11:25:07;99002.41;;;22.61;42.53
32083;BME280;18597;48.328;7.932;2023-05-15T11:27:41;99001.22;;;22.75;43.55
32083;BME280;18597;48.328;7.932;2023-05-15T11:30:17;98997.38;;;22.83;42.91
32083;BME280;18597;48.328;7.932;2023-05-15T11:35:43;98987.44;;;23.62;40.02
32083;BME280;18597;48.328;7.932;2023-05-15T11:38:15;98979.69;;;23.59;39.63
32083;BME280;18597;48.328;7.932;2023-05-15T11:40:49;98983.75;;;23.38;41.49
32083;BME280;18597;48.328;7.932;2023-05-15T11:43:34;98987.66;;;23.42;42.11
32083;BME280;18597;48.328;7.932;2023-05-15T11:46:07;98978.09;;;23.69;41.41
32083;BME280;18597;48.328;7.932;2023-05-15T11:48:43;98971.31;;;23.72;40.22
32083;BME280;18597;48.328;7.932;2023-05-15T11:51:19;98966.31;;;23.99;40.06
32083;BME280;18597;48.328;7.932;2023-05-15T11:53:48;98965.78;;;23.78;40.29
32083;BME280;18597;48.328;7.932;2023-05-15T11:56:20;98969.56;;;23.66;40.33
32083;BME280;18597;48.328;7.932;2023-05-15T11:58:49;98968.94;;;23.64;40.35
32083;BME280;18597;48.328;7.932;2023-05-15T12:01:15;98967.22;;;23.51;40.43
32083;BME280;18597;48.328;7.932;2023-05-15T12:03:41;98962.28;;;23.41;41.28
32083;BME280;18597;48.328;7.932;2023-05-15T12:06:07;98962.22;;;23.78;40.20
32083;BME280;18597;48.328;7.932;2023-05-15T12:08:35;98963.88;;;24.32;39.08
32083;BME280;18597;48.328;7.932;2023-05-15T12:11:03;98969.31;;;25.03;37.56
32083;BME280;18597;48.328;7.932;2023-05-15T12:13:31;98956.00;;;25.46;36.79
32083;BME280;18597;48.328;7.932;2023-05-15T12:16:00;98963.97;;;25.77;36.97
32083;BME280;18597;48.328;7.932;2023-05-15T12:18:26;98959.56;;;25.76;36.24
32083;BME280;18597;48.328;7.932;2023-05-15T12:20:53;98961.16;;;25.71;35.45
32083;BME280;18597;48.328;7.932;2023-05-15T12:23:23;98954.72;;;25.78;35.84
32083;BME280;18597;48.328;7.932;2023-05-15T12:25:52;98953.47;;;25.57;35.12
32083;BME280;18597;48.328;7.932;2023-05-15T12:28:22;98947.91;;;25.00;35.68
32083;BME280;18597;48.328;7.932;2023-05-15T12:30:48;98950.31;;;24.96;34.98
32083;BME280;18597;48.328;7.932;2023-05-15T12:33:15;98951.09;;;25.20;34.56
32083;BME280;18597;48.328;7.932;2023-05-15T12:35:43;98947.56;;;25.48;34.12
32083;BME280;18597;48.328;7.932;2023-05-15T12:38:14;98950.38;;;25.25;32.62
32083;BME280;18597;48.328;7.932;2023-05-15T12:40:43;98950.72;;;25.57;32.91
32083;BME280;18597;48.328;7.932;2023-05-15T12:43:12;98945.84;;;26.04;33.31
32083;BME280;18597;48.328;7.932;2023-05-15T12:45:41;98950.66;;;26.31;32.05
32083;BME280;18597;48.328;7.932;2023-05-15T12:48:11;98962.38;;;26.43;31.89
32083;BME280;18597;48.328;7.932;2023-05-15T12:50:37;98969.28;;;25.26;34.19
32083;BME280;18597;48.328;7.932;2023-05-15T12:53:04;98993.84;;;23.67;36.59
32083;BME280;18597;48.328;7.932;2023-05-15T12:55:33;98991.09;;;22.57;37.10
32083;BME280;18597;48.328;7.932;2023-05-15T12:58:04;99002.31;;;21.54;39.34
32083;BME280;18597;48.328;7.932;2023-05-15T13:00:35;98998.06;;;21.14;40.28
32083;BME280;18597;48.328;7.932;2023-05-15T13:03:02;99005.94;;;21.42;40.15
32083;BME280;18597;48.328;7.932;2023-05-15T13:05:31;98997.38;;;20.73;40.07
32083;BME280;18597;48.328;7.932;2023-05-15T13:08:00;98997.38;;;20.20;41.77
32083;BME280;18597;48.328;7.932;2023-05-15T13:10:27;98995.28;;;20.09;41.96
32083;BME280;18597;48.328;7.932;2023-05-15T13:12:55;99008.00;;;20.02;42.33
32083;BME280;18597;48.328;7.932;2023-05-15T13:15:29;99007.34;;;19.87;42.63
32083;BME280;18597;48.328;7.932;2023-05-15T13:18:09;99010.25;;;19.18;44.77